Milwaukee, Wisconsin
Traffic Map
Current Weather Conditions
Milwaukee, Wisconsin
Scattered Clouds
Scattered Clouds

Feels Like: 6°
Wind Chill: Ceiling: Unl
Heat Index: Visibility: 10mi
Dew Point: Wind: 14mph
Humidity: 61% Direction: 40° (NE)
Pressure: 30.11in Gusts: 0mph
Raw Report DataKMKE 281852Z 04012KT 10SM FEW055 SCT250 09/02 A3011 RMK AO2 SLP202 T00940022
Traffic Incident Summary
Active as of:
Severity:
Category:
InformationThere was an issue retrieving the traffic information for this location. Please try a different location or try again shortly.
Advertisements
Track Severe Weather on mobile